Terminal Aerodrome Forecast
Issued by NWS Newport/Morehead City, NC

Home | Current Version | Previous Version | Text Only | Print | Product List | Glossary On
Versions: 1 2 3 4 5 6 7 8 9 10 11 12 13 14
000
FTUS42 KMHX 171700 RRA
TAFEWN
TAF
KEWN 171742Z 1718/1818 07005KT P6SM VCSH SCT025 OVC040
      TEMPO 1720/1723 -RA SCT020 BKN035
     FM180000 06003KT P6SM VCSH OVC035
     FM180800 03005KT 6SM BR BKN025
     FM181300 04007KT P6SM VCSH BKN035=

USA.gov is the U.S. government's official web portal to all federal, state and local government web resources and services.